Anaconda, New Mexico
Current Conditions -  °F | °C
As of 7:57 PM on Friday 21 Nov 2014 (Local Time) from KGNT Reporting Station
Clear Clear  
Wind Chill: 28°   Ceiling: Unl
Heat Index: 28°   Visibility: 10mi
Dew Point: 14°   Wind: 0mph
Humidity: 55%   Direction: NA
Pressure: 30.1"   Gusts: NA
Location:  35.2644°N, 107.733°W
Report Text: KGNT 220257Z AUTO 00000KT 10SM CLR M02/M10 A3010 RMK AO2
Loading
Personal Weather Stations






























Interactive Weather Map New forecast layout! Learn more

10-Day Weather Forecast

Advertisements
Track Severe Weather on mobile